createdAt,value
2016-04-10T00:00:40.498Z,0
2016-04-10T00:01:40.657Z,0
2016-04-10T00:02:40.675Z,0
2016-04-10T00:03:40.694Z,0
2016-04-10T00:04:40.713Z,0
2016-04-10T00:05:40.730Z,0
2016-04-10T00:06:40.749Z,0
2016-04-10T00:07:40.767Z,0
2016-04-10T00:08:40.786Z,0
2016-04-10T00:09:40.819Z,0
2016-04-10T00:10:40.838Z,0
2016-04-10T00:11:40.840Z,0
2016-04-10T00:12:40.859Z,0
2016-04-10T00:13:40.877Z,0
2016-04-10T00:14:40.895Z,0
2016-04-10T00:15:40.899Z,0
2016-04-10T00:16:40.932Z,0
2016-04-10T00:17:40.950Z,0
2016-04-10T00:18:40.954Z,0
2016-04-10T00:19:40.987Z,0
2016-04-10T00:20:40.990Z,0
2016-04-10T00:21:41.023Z,0
2016-04-10T00:22:41.042Z,0
2016-04-10T00:23:41.059Z,0
2016-04-10T00:24:40.923Z,0
2016-04-10T00:25:41.081Z,0
2016-04-10T00:26:41.100Z,0
2016-04-10T00:27:41.117Z,0
2016-04-10T00:28:41.152Z,0
2016-04-10T00:29:41.155Z,0
2016-04-10T00:30:41.172Z,0
2016-04-10T00:31:40.441Z,0
2016-04-10T00:32:41.225Z,0
2016-04-10T00:33:41.259Z,0
2016-04-10T00:34:41.246Z,0
2016-04-10T00:35:41.311Z,0
2016-04-10T00:36:41.314Z,0
2016-04-10T00:37:41.363Z,0
2016-04-10T00:38:41.367Z,0
2016-04-10T00:39:41.385Z,0
2016-04-10T00:40:41.372Z,0
2016-04-10T00:41:41.374Z,0
2016-04-10T00:42:41.377Z,0
2016-04-10T00:43:40.646Z,0
2016-04-10T00:44:41.413Z,0
2016-04-10T00:45:41.479Z,0
2016-04-10T00:46:40.700Z,0
2016-04-10T00:47:41.531Z,0
2016-04-10T00:48:41.487Z,0
2016-04-10T00:49:41.552Z,0
2016-04-10T00:50:41.507Z,0
2016-04-10T00:51:41.557Z,0
2016-04-10T00:52:41.560Z,0
2016-04-10T00:53:41.657Z,0
2016-04-10T00:54:41.597Z,0
2016-04-10T00:55:41.600Z,0
2016-04-10T00:56:41.617Z,0
2016-04-10T00:57:41.620Z,0
2016-04-10T00:58:41.654Z,0
2016-04-10T00:59:41.672Z,0
2016-04-10T01:00:41.691Z,0
2016-04-10T01:01:41.725Z,0
2016-04-10T01:02:41.728Z,0
2016-04-10T01:03:41.747Z,0
2016-04-10T01:04:41.764Z,0
2016-04-10T01:05:41.809Z,0
2016-04-10T01:06:41.865Z,0
2016-04-10T01:07:41.925Z,0
2016-04-10T01:08:41.984Z,0
2016-04-10T01:09:42.057Z,0
2016-04-10T01:10:42.084Z,0
2016-04-10T01:11:42.147Z,0
2016-04-10T01:12:42.165Z,0
2016-04-10T01:13:42.183Z,0
2016-04-10T01:14:42.199Z,0
2016-04-10T01:15:42.225Z,0
2016-04-10T01:16:42.249Z,0
2016-04-10T01:17:42.288Z,0
2016-04-10T01:18:42.311Z,0
2016-04-10T01:19:42.319Z,0
2016-04-10T01:20:42.325Z,0
2016-04-10T01:21:42.345Z,0
2016-04-10T01:22:42.381Z,0
2016-04-10T01:23:42.400Z,0
2016-04-10T01:24:42.405Z,0
2016-04-10T01:25:42.442Z,0
2016-04-10T01:26:42.491Z,0
2016-04-10T01:27:42.495Z,0
2016-04-10T01:28:42.499Z,0
2016-04-10T01:29:42.517Z,0
2016-04-10T01:30:42.536Z,0
2016-04-10T01:31:42.586Z,0
2016-04-10T01:32:42.589Z,0
2016-04-10T01:33:42.624Z,0
2016-04-10T01:34:42.626Z,0
2016-04-10T01:35:42.676Z,0
2016-04-10T01:36:42.679Z,0
2016-04-10T01:37:42.853Z,0
2016-04-10T01:38:42.654Z,0
2016-04-10T01:39:42.687Z,0
2016-04-10T01:40:42.705Z,0
2016-04-10T01:41:42.707Z,0
2016-04-10T01:42:42.757Z,0
2016-04-10T01:43:42.745Z,0
2016-04-10T01:44:42.762Z,0
2016-04-10T01:45:42.782Z,0
2016-04-10T01:46:42.800Z,0
2016-04-10T01:47:42.818Z,0
2016-04-10T01:48:42.837Z,0
2016-04-10T01:49:42.854Z,0
2016-04-10T01:50:42.857Z,0
2016-04-10T01:51:42.891Z,0
2016-04-10T01:52:43.034Z,0
2016-04-10T01:53:42.928Z,0
2016-04-10T01:54:42.946Z,0
2016-04-10T01:55:42.964Z,0
2016-04-10T01:56:42.983Z,0
2016-04-10T01:57:43.000Z,0
2016-04-10T01:58:43.003Z,0
2016-04-10T01:59:43.022Z,0
2016-04-10T02:00:43.056Z,0
2016-04-10T02:01:43.058Z,0
2016-04-10T02:02:43.077Z,0
2016-04-10T02:03:43.096Z,0
2016-04-10T02:04:43.113Z,0
2016-04-10T02:05:43.116Z,0
2016-04-10T02:06:43.149Z,0
2016-04-10T02:07:43.246Z,0
2016-04-10T02:08:43.172Z,0
2016-04-10T02:09:43.190Z,0
2016-04-10T02:10:43.521Z,0
2016-04-10T02:11:43.242Z,0
2016-04-10T02:12:43.245Z,0
2016-04-10T02:13:43.279Z,0
2016-04-10T02:14:43.296Z,0
2016-04-10T02:15:43.612Z,0
2016-04-10T02:16:43.318Z,0
2016-04-10T02:17:43.351Z,0
2016-04-10T02:18:43.355Z,0
2016-04-10T02:19:43.373Z,0
2016-04-10T02:20:43.392Z,0
2016-04-10T02:21:43.409Z,0
2016-04-10T02:22:43.272Z,0
2016-04-10T02:23:43.743Z,0
2016-04-10T02:24:43.448Z,0
2016-04-10T02:25:43.483Z,0
2016-04-10T02:26:43.500Z,0
2016-04-10T02:27:43.519Z,0
2016-04-10T02:28:43.522Z,0
2016-04-10T02:29:43.556Z,0
2016-04-10T02:30:43.575Z,0
2016-04-10T02:31:43.592Z,0
2016-04-10T02:32:43.594Z,0
2016-04-10T02:33:43.630Z,0
2016-04-10T02:34:43.632Z,0
2016-04-10T02:35:43.650Z,0
2016-04-10T02:36:43.668Z,0
2016-04-10T02:37:43.687Z,0
2016-04-10T02:38:43.705Z,0
2016-04-10T02:39:43.723Z,0
2016-04-10T02:40:43.741Z,0
2016-04-10T02:41:43.744Z,0
2016-04-10T02:42:43.763Z,0
2016-04-10T02:43:43.782Z,0
2016-04-10T02:44:43.815Z,0
2016-04-10T02:45:43.865Z,0
2016-04-10T02:46:43.836Z,0
2016-04-10T02:47:43.901Z,0
2016-04-10T02:48:43.873Z,0
2016-04-10T02:49:43.906Z,0
2016-04-10T02:50:43.909Z,0
2016-04-10T02:51:43.911Z,0
2016-04-10T02:52:43.930Z,0
2016-04-10T02:53:44.261Z,0
2016-04-10T02:54:43.983Z,0
2016-04-10T02:55:44.017Z,0
2016-04-10T02:56:44.019Z,0
2016-04-10T02:57:44.053Z,0
2016-04-10T02:58:44.072Z,0
2016-04-10T02:59:44.089Z,0
2016-04-10T03:00:44.092Z,0
2016-04-10T03:01:44.094Z,0
2016-04-10T03:02:44.129Z,0
2016-04-10T03:03:44.133Z,0
2016-04-10T03:04:44.150Z,0
2016-04-10T03:05:44.168Z,0
2016-04-10T03:06:44.186Z,0
2016-04-10T03:07:44.205Z,0
2016-04-10T03:08:44.352Z,0
2016-04-10T03:09:44.244Z,0
2016-04-10T03:10:44.247Z,0
2016-04-10T03:11:44.266Z,0
2016-04-10T03:12:44.283Z,0
2016-04-10T03:13:44.302Z,0
2016-04-10T03:14:44.320Z,0
2016-04-10T03:15:44.338Z,0
2016-04-10T03:16:43.607Z,0
2016-04-10T03:17:44.376Z,0
2016-04-10T03:18:44.691Z,0
2016-04-10T03:19:44.256Z,0
2016-04-10T03:20:44.415Z,0
2016-04-10T03:21:44.746Z,0
2016-04-10T03:22:44.451Z,0
2016-04-10T03:23:44.485Z,0
2016-04-10T03:24:44.487Z,0
2016-04-10T03:25:44.507Z,0
2016-04-10T03:26:44.525Z,0
2016-04-10T03:27:44.559Z,0
2016-04-10T03:28:44.562Z,0
2016-04-10T03:29:44.564Z,0
2016-04-10T03:30:44.582Z,0
2016-04-10T03:31:44.617Z,0
2016-04-10T03:32:44.634Z,0
2016-04-10T03:33:44.669Z,0
2016-04-10T03:34:58.749Z,0
2016-04-10T03:35:44.674Z,0
2016-04-10T03:36:44.692Z,0
2016-04-10T03:37:44.788Z,0
2016-04-10T03:38:44.729Z,0
2016-04-10T03:39:47.747Z,0
2016-04-10T03:40:44.766Z,0
2016-04-10T03:41:44.894Z,0
2016-04-10T03:42:44.833Z,0
2016-04-10T03:43:44.883Z,0
2016-04-10T03:44:44.869Z,0
2016-04-10T03:45:44.888Z,0
2016-04-10T03:46:44.860Z,0
2016-04-10T03:47:44.925Z,0
2016-04-10T03:48:44.897Z,0
2016-04-10T03:49:44.976Z,0
2016-04-10T03:50:44.933Z,0
2016-04-10T03:51:44.999Z,0
2016-04-10T03:52:44.970Z,0
2016-04-10T03:53:45.019Z,0
2016-04-10T03:54:45.006Z,0
2016-04-10T03:55:45.040Z,0
2016-04-10T03:56:45.965Z,0
2016-04-10T03:57:45.093Z,0
2016-04-10T03:58:44.798Z,0
2016-04-10T03:59:45.097Z,0
2016-04-10T04:00:45.116Z,0
2016-04-10T04:01:44.963Z,0
2016-04-10T04:02:45.137Z,0
2016-04-10T04:03:45.156Z,0
2016-04-10T04:04:45.173Z,0
2016-04-10T04:05:45.192Z,0
2016-04-10T04:06:45.226Z,0
2016-04-10T04:07:45.228Z,0
2016-04-10T04:08:45.247Z,0
2016-04-10T04:09:45.250Z,0
2016-04-10T04:10:45.284Z,0
2016-04-10T04:11:45.303Z,0
2016-04-10T04:12:45.320Z,0
2016-04-10T04:13:45.636Z,0
2016-04-10T04:14:45.544Z,0
2016-04-10T04:15:45.360Z,0
2016-04-10T04:16:45.394Z,0
2016-04-10T04:17:45.396Z,0
2016-04-10T04:18:45.415Z,0
2016-04-10T04:19:45.432Z,4
2016-04-10T04:20:45.451Z,4
2016-04-10T04:21:44.751Z,0
2016-04-10T04:22:45.472Z,4
2016-04-10T04:23:45.507Z,4
2016-04-10T04:24:45.509Z,4
2016-04-10T04:25:45.527Z,8
2016-04-10T04:26:45.562Z,4
2016-04-10T04:27:45.564Z,8
2016-04-10T04:28:45.582Z,12
2016-04-10T04:29:45.648Z,8
2016-04-10T04:30:45.650Z,12
2016-04-10T04:31:45.653Z,12
2016-04-10T04:32:45.656Z,16
2016-04-10T04:33:45.690Z,16
2016-04-10T04:34:44.942Z,16
2016-04-10T04:35:46.054Z,20
2016-04-10T04:36:45.744Z,24
2016-04-10T04:37:45.794Z,28
2016-04-10T04:38:45.750Z,32
2016-04-10T04:39:45.767Z,36
2016-04-10T04:40:45.786Z,40
2016-04-10T04:41:46.117Z,40
2016-04-10T04:42:45.823Z,44
2016-04-10T04:43:45.825Z,52
2016-04-10T04:44:45.859Z,60
2016-04-10T04:45:45.878Z,64
2016-04-10T04:46:45.880Z,76
2016-04-10T04:47:48.913Z,88
2016-04-10T04:48:45.933Z,96
2016-04-10T04:49:45.951Z,112
2016-04-10T04:50:45.959Z,124
2016-04-10T04:51:45.977Z,136
2016-04-10T04:52:45.979Z,148
2016-04-10T04:53:45.998Z,160
2016-04-10T04:54:45.876Z,168
2016-04-10T04:55:46.051Z,180
2016-04-10T04:56:46.053Z,192
2016-04-10T04:57:46.070Z,204
2016-04-10T04:58:46.090Z,216
2016-04-10T04:59:46.108Z,228
2016-04-10T05:00:46.125Z,236
2016-04-10T05:01:46.145Z,248
2016-04-10T05:02:46.162Z,264
2016-04-10T05:03:46.165Z,276
2016-04-10T05:04:46.200Z,284
2016-04-10T05:05:46.217Z,300
2016-04-10T05:06:46.236Z,312
2016-04-10T05:07:46.239Z,328
2016-04-10T05:08:46.257Z,336
2016-04-10T05:09:46.275Z,356
2016-04-10T05:10:46.591Z,376
2016-04-10T05:11:46.327Z,396
2016-04-10T05:12:46.347Z,412
2016-04-10T05:13:46.349Z,436
2016-04-10T05:14:46.383Z,464
2016-04-10T05:15:46.385Z,488
2016-04-10T05:16:46.404Z,512
2016-04-10T05:17:46.421Z,532
2016-04-10T05:18:46.441Z,548
2016-04-10T05:19:46.458Z,568
2016-04-10T05:20:46.460Z,584
2016-04-10T05:21:46.480Z,604
2016-04-10T05:23:00.591Z,636
2016-04-10T05:23:46.515Z,656
2016-04-10T05:24:46.535Z,684
2016-04-10T05:25:46.553Z,720
2016-04-10T05:26:46.571Z,752
2016-04-10T05:27:46.589Z,784
2016-04-10T05:28:46.607Z,812
2016-04-10T05:29:46.626Z,844
2016-04-10T05:30:46.941Z,872
2016-04-10T05:31:46.647Z,892
2016-04-10T05:32:46.681Z,916
2016-04-10T05:33:46.683Z,940
2016-04-10T05:34:46.703Z,976
2016-04-10T05:35:46.720Z,1008
2016-04-10T05:36:46.753Z,1044
2016-04-10T05:37:46.789Z,1080
2016-04-10T05:38:46.791Z,1120
2016-04-10T05:39:46.777Z,1160
2016-04-10T05:40:46.797Z,1200
2016-04-10T05:41:46.830Z,1248
2016-04-10T05:42:46.849Z,1292
2016-04-10T05:43:46.867Z,1340
2016-04-10T05:44:46.885Z,1388
2016-04-10T05:45:46.919Z,1436
2016-04-10T05:47:01.296Z,1492
2016-04-10T05:47:46.924Z,1528
2016-04-10T05:48:46.958Z,1576
2016-04-10T05:49:47.555Z,1620
2016-04-10T05:50:47.011Z,1664
2016-04-10T05:51:47.044Z,1712
2016-04-10T05:52:47.047Z,1756
2016-04-10T05:53:47.049Z,1808
2016-04-10T05:54:47.052Z,1856
2016-04-10T05:55:47.087Z,1892
2016-04-10T05:56:47.089Z,1928
2016-04-10T05:57:47.108Z,1964
2016-04-10T05:58:47.110Z,1996
2016-04-10T05:59:47.175Z,2028
2016-04-10T06:00:47.147Z,2064
2016-04-10T06:01:47.181Z,2100
2016-04-10T06:02:47.198Z,2140
2016-04-10T06:03:47.217Z,2180
2016-04-10T06:04:47.220Z,2220
2016-04-10T06:05:47.254Z,2248
2016-04-10T06:06:47.256Z,2276
2016-04-10T06:07:47.275Z,2300
2016-04-10T06:08:47.778Z,2316
2016-04-10T06:09:47.327Z,2336
2016-04-10T06:10:47.767Z,2332
2016-04-10T06:11:47.348Z,2332
2016-04-10T06:12:47.366Z,2332
2016-04-10T06:13:47.386Z,2340
2016-04-10T06:14:47.388Z,2344
2016-04-10T06:15:47.421Z,2348
2016-04-10T06:16:47.440Z,2348
2016-04-10T06:17:47.443Z,2352
2016-04-10T06:18:47.460Z,2360
2016-04-10T06:19:47.479Z,2372
2016-04-10T06:20:47.482Z,2372
2016-04-10T06:21:47.532Z,2352
2016-04-10T06:22:47.382Z,2332
2016-04-10T06:23:47.936Z,2348
2016-04-10T06:24:47.413Z,2384
2016-04-10T06:25:47.468Z,2440
2016-04-10T06:26:47.632Z,2500
2016-04-10T06:27:47.619Z,2544
2016-04-10T06:28:47.637Z,2576
2016-04-10T06:29:47.671Z,2592
2016-04-10T06:30:47.674Z,2624
2016-04-10T06:31:47.692Z,2664
2016-04-10T06:32:47.710Z,2716
2016-04-10T06:33:47.729Z,2780
2016-04-10T06:34:47.747Z,2852
2016-04-10T06:35:47.749Z,2932
2016-04-10T06:36:47.768Z,3032
2016-04-10T06:37:47.802Z,3120
2016-04-10T06:38:47.976Z,3204
2016-04-10T06:39:48.150Z,3280
2016-04-10T06:40:47.842Z,3348
2016-04-10T06:41:47.875Z,3400
2016-04-10T06:42:47.878Z,3440
2016-04-10T06:43:47.975Z,3480
2016-04-10T06:44:47.945Z,3516
2016-04-10T06:45:47.995Z,3556
2016-04-10T06:46:47.951Z,3604
2016-04-10T06:47:48.078Z,3652
2016-04-10T06:48:47.988Z,3700
2016-04-10T06:49:48.069Z,3744
2016-04-10T06:50:48.040Z,3780
2016-04-10T06:51:48.105Z,3804
2016-04-10T06:52:48.077Z,3800
2016-04-10T06:53:48.377Z,3756
2016-04-10T06:54:48.113Z,3700
2016-04-10T06:55:48.178Z,3632
2016-04-10T06:56:48.165Z,3572
2016-04-10T06:57:48.216Z,3516
2016-04-10T06:58:48.171Z,3468
2016-04-10T06:59:48.220Z,3424
2016-04-10T07:00:48.052Z,3384
2016-04-10T07:01:48.226Z,3340
2016-04-10T07:02:48.275Z,3292
2016-04-10T07:03:48.279Z,3236
2016-04-10T07:04:48.297Z,3200
2016-04-10T07:05:48.315Z,3180
2016-04-10T07:06:48.332Z,3164
2016-04-10T07:07:48.336Z,3156
2016-04-10T07:08:48.276Z,3208
2016-04-10T07:09:48.372Z,3340
2016-04-10T07:10:48.406Z,3520
2016-04-10T07:11:48.440Z,3688
2016-04-10T07:12:48.458Z,3816
2016-04-10T07:13:48.462Z,3944
2016-04-10T07:15:48.514Z,4184
2016-04-10T07:16:48.516Z,4320
2016-04-10T07:17:48.550Z,4448
2016-04-10T07:18:48.553Z,4508
2016-04-10T07:19:48.571Z,4488
2016-04-10T07:20:48.589Z,4416
2016-04-10T07:21:48.608Z,4308
2016-04-10T07:22:48.610Z,4160
2016-04-10T07:23:48.754Z,4008
2016-04-10T07:24:48.647Z,3844
2016-04-10T07:25:48.681Z,3692
2016-04-10T07:26:48.699Z,3560
2016-04-10T07:27:48.702Z,3444
2016-04-10T07:28:48.736Z,3344
2016-04-10T07:29:48.754Z,3256
2016-04-10T07:30:48.772Z,3188
2016-04-10T07:31:48.791Z,3124
2016-04-10T07:32:48.809Z,3060
2016-04-10T07:33:48.828Z,3020
2016-04-10T07:34:48.846Z,2988
2016-04-10T07:35:48.865Z,2968
2016-04-10T07:36:48.882Z,2948
2016-04-10T07:37:48.901Z,2920
2016-04-10T07:38:48.997Z,2876
2016-04-10T07:39:48.953Z,2820
2016-04-10T07:40:48.955Z,2760
2016-04-10T07:41:48.974Z,2692
2016-04-10T07:42:49.008Z,2628
2016-04-10T07:43:49.011Z,2580
2016-04-10T07:44:49.029Z,2548
2016-04-10T07:45:49.047Z,2520
2016-04-10T07:46:49.065Z,2508
2016-04-10T07:47:49.084Z,2488
2016-04-10T07:48:49.118Z,2472
2016-04-10T07:49:49.136Z,2456
2016-04-10T07:50:49.154Z,2440
2016-04-10T07:51:49.188Z,2428
2016-04-10T07:52:49.175Z,2416
2016-04-10T07:53:49.241Z,2412
2016-04-10T07:54:49.212Z,2424
2016-04-10T07:55:49.230Z,2444
2016-04-10T07:56:49.264Z,2476
2016-04-10T07:57:49.283Z,2524
2016-04-10T07:58:49.316Z,2580
2016-04-10T07:59:49.319Z,2644
2016-04-10T08:00:49.322Z,2716
2016-04-10T08:01:49.340Z,2796
2016-04-10T08:02:49.375Z,2872
2016-04-10T08:03:49.393Z,2960
2016-04-10T08:04:49.411Z,3040
2016-04-10T08:05:49.429Z,3124
2016-04-10T08:06:49.448Z,3200
2016-04-10T08:07:49.465Z,3292
2016-04-10T08:08:49.359Z,3384
2016-04-10T08:09:49.502Z,3472
2016-04-10T08:10:49.520Z,3548
2016-04-10T08:11:49.540Z,3640
2016-04-10T08:12:49.573Z,3724
2016-04-10T08:13:49.575Z,3800
2016-04-10T08:14:49.595Z,3872
2016-04-10T08:15:49.612Z,3932
2016-04-10T08:16:49.645Z,3940
2016-04-10T08:17:49.664Z,3944
2016-04-10T08:18:49.683Z,3912
2016-04-10T08:19:49.686Z,3848
2016-04-10T08:20:49.736Z,3780
2016-04-10T08:21:48.972Z,3728
2016-04-10T08:22:49.741Z,3700
2016-04-10T08:23:49.821Z,3692
2016-04-10T08:24:49.792Z,3720
2016-04-10T08:25:49.044Z,3772
2016-04-10T08:26:49.830Z,3856
2016-04-10T08:27:49.832Z,3968
2016-04-10T08:28:49.850Z,4124
2016-04-10T08:29:49.885Z,4312
2016-04-10T08:30:49.902Z,4516
2016-04-10T08:31:49.921Z,4704
2016-04-10T08:32:49.939Z,4884
2016-04-10T08:33:49.207Z,5048
2016-04-10T08:34:49.976Z,5228
2016-04-10T08:35:49.994Z,5376
2016-04-10T08:36:49.996Z,5552
2016-04-10T08:37:50.047Z,5736
2016-04-10T08:38:50.065Z,5908
2016-04-10T08:39:50.067Z,6064
2016-04-10T08:40:50.086Z,6200
2016-04-10T08:41:50.104Z,6316
2016-04-10T08:42:50.122Z,6432
2016-04-10T08:43:50.157Z,6548
2016-04-10T08:44:50.175Z,6596
2016-04-10T08:45:50.193Z,6796
2016-04-10T08:46:50.259Z,6908
2016-04-10T08:47:50.245Z,7012
2016-04-10T08:48:50.278Z,7096
2016-04-10T08:49:50.298Z,7192
2016-04-10T08:50:50.284Z,7256
2016-04-10T08:51:50.333Z,7316
2016-04-10T08:52:50.321Z,7380
2016-04-10T08:53:50.339Z,7448
2016-04-10T08:54:50.358Z,7520
2016-04-10T08:55:50.407Z,7596
2016-04-10T08:56:50.426Z,7664
2016-04-10T08:57:50.444Z,7712
2016-04-10T08:58:49.696Z,7736
2016-04-10T08:59:50.466Z,7740
2016-04-10T09:00:50.483Z,7740
2016-04-10T09:01:50.517Z,7756
2016-04-10T09:02:50.535Z,7796
2016-04-10T09:03:50.554Z,7860
2016-04-10T09:04:49.822Z,7924
2016-04-10T09:05:50.574Z,8000
2016-04-10T09:06:50.593Z,8072
2016-04-10T09:07:50.830Z,8136
2016-04-10T09:08:50.645Z,8188
2016-04-10T09:09:50.664Z,8220
2016-04-10T09:10:50.698Z,8248
2016-04-10T09:11:50.700Z,8300
2016-04-10T09:12:50.734Z,8424
2016-04-10T09:13:50.737Z,8552
2016-04-10T09:14:50.771Z,8660
2016-04-10T09:15:50.789Z,8752
2016-04-10T09:16:50.807Z,8756
2016-04-10T09:17:50.826Z,8656
2016-04-10T09:18:50.844Z,8568
2016-04-10T09:19:50.878Z,8472
2016-04-10T09:20:50.896Z,8400
2016-04-10T09:21:50.915Z,8392
2016-04-10T09:22:50.948Z,8460
2016-04-10T09:23:50.951Z,8576
2016-04-10T09:24:50.986Z,8804
2016-04-10T09:25:51.003Z,9000
2016-04-10T09:26:51.053Z,9084
2016-04-10T09:27:51.071Z,8960
2016-04-10T09:28:51.058Z,8836
2016-04-10T09:29:51.108Z,8756
2016-04-10T09:30:51.158Z,8584
2016-04-10T09:31:51.176Z,8360
2016-04-10T09:32:51.194Z,8128
2016-04-10T09:33:51.228Z,7840
2016-04-10T09:34:51.230Z,7548
2016-04-10T09:35:51.624Z,7296
2016-04-10T09:36:51.252Z,7104
2016-04-10T09:37:51.333Z,6984
2016-04-10T09:38:51.273Z,6936
2016-04-10T09:39:51.338Z,6936
2016-04-10T09:40:51.310Z,6924
2016-04-10T09:41:51.359Z,6880
2016-04-10T09:42:51.362Z,6836
2016-04-10T09:43:51.396Z,6780
2016-04-10T09:44:51.414Z,6708
2016-04-10T09:45:51.417Z,6612
2016-04-10T09:46:51.451Z,6532
2016-04-10T09:47:51.469Z,6508
2016-04-10T09:48:51.503Z,6548
2016-04-10T09:49:51.506Z,6664
2016-04-10T09:50:51.524Z,6852
2016-04-10T09:51:51.542Z,7092
2016-04-10T09:52:51.576Z,7324
2016-04-10T09:53:51.594Z,7476
2016-04-10T09:54:51.613Z,7544
2016-04-10T09:55:51.631Z,7552
2016-04-10T09:56:51.650Z,7560
2016-04-10T09:57:51.668Z,7608
2016-04-10T09:58:51.702Z,7700
2016-04-10T09:59:51.736Z,7816
2016-04-10T10:00:51.754Z,7900
2016-04-10T10:01:51.757Z,7924
2016-04-10T10:02:51.806Z,7880
2016-04-10T10:03:51.793Z,7780
2016-04-10T10:04:51.827Z,7680
2016-04-10T10:05:51.846Z,7628
2016-04-10T10:06:51.880Z,7668
2016-04-10T10:07:51.899Z,7832
2016-04-10T10:08:51.920Z,8056
2016-04-10T10:09:51.939Z,8328
2016-04-10T10:10:51.957Z,8376
2016-04-10T10:11:52.005Z,8544
2016-04-10T10:12:52.081Z,8720
2016-04-10T10:13:52.141Z,8724
2016-04-10T10:14:52.201Z,9228
2016-04-10T10:15:52.262Z,9428
2016-04-10T10:16:52.304Z,9488
2016-04-10T10:17:52.337Z,9128
2016-04-10T10:18:52.387Z,9044
2016-04-10T10:19:52.420Z,8864
2016-04-10T10:20:52.454Z,8812
2016-04-10T10:21:52.341Z,8500
2016-04-10T10:22:52.521Z,8864
2016-04-10T10:23:52.747Z,8660
2016-04-10T10:24:52.584Z,8076
2016-04-10T10:25:52.592Z,7788
2016-04-10T10:26:52.612Z,7520
2016-04-10T10:27:52.648Z,7376
2016-04-10T10:28:52.653Z,7340
2016-04-10T10:29:52.689Z,7416
2016-04-10T10:30:52.709Z,7452
2016-04-10T10:31:52.729Z,8036
2016-04-10T10:32:52.811Z,8784
2016-04-10T10:33:52.830Z,8972
2016-04-10T10:34:52.833Z,9012
2016-04-10T10:35:52.837Z,8852
2016-04-10T10:36:52.105Z,8556
2016-04-10T10:37:52.858Z,7944
2016-04-10T10:38:52.908Z,8304
2016-04-10T10:39:52.911Z,8668
2016-04-10T10:40:52.945Z,9008
2016-04-10T10:41:52.964Z,8536
2016-04-10T10:42:52.966Z,7980
2016-04-10T10:43:53.000Z,7816
2016-04-10T10:44:53.035Z,7956
2016-04-10T10:45:53.053Z,7840
2016-04-10T10:46:53.072Z,7812
2016-04-10T10:47:53.089Z,8188
2016-04-10T10:48:53.108Z,8464
2016-04-10T10:49:53.126Z,8784
2016-04-10T10:50:53.144Z,9120
2016-04-10T10:51:53.179Z,8956
2016-04-10T10:52:53.196Z,8528
2016-04-10T10:53:53.230Z,8356
2016-04-10T10:54:53.248Z,8804
2016-04-10T10:55:53.267Z,8528
2016-04-10T10:56:53.285Z,8352
2016-04-10T10:57:53.303Z,7884
2016-04-10T10:58:53.322Z,7852
2016-04-10T10:59:53.340Z,8144
2016-04-10T11:00:53.374Z,8452
2016-04-10T11:01:53.393Z,8656
2016-04-10T11:02:53.426Z,8700
2016-04-10T11:03:53.445Z,8648
2016-04-10T11:04:53.479Z,8588
2016-04-10T11:05:53.778Z,8644
2016-04-10T11:06:53.500Z,8656
2016-04-10T11:07:53.534Z,8724
2016-04-10T11:08:53.537Z,8764
2016-04-10T11:09:53.571Z,8692
2016-04-10T11:10:53.605Z,8652
2016-04-10T11:11:53.623Z,8648
2016-04-10T11:12:53.626Z,8684
2016-04-10T11:13:53.706Z,8796
2016-04-10T11:14:53.709Z,8796
2016-04-10T11:15:53.743Z,8752
2016-04-10T11:16:53.761Z,8728
2016-04-10T11:17:54.061Z,8740
2016-04-10T11:18:53.797Z,8744
2016-04-10T11:19:53.816Z,8804
2016-04-10T11:20:53.802Z,8856
2016-04-10T11:21:53.837Z,8820
2016-04-10T11:22:53.855Z,8672
2016-04-10T11:23:53.874Z,8544
2016-04-10T11:24:53.908Z,8548
2016-04-10T11:25:53.910Z,8568
2016-04-10T11:26:53.944Z,8576
2016-04-10T11:27:53.962Z,8704
2016-04-10T11:28:53.996Z,8744
2016-04-10T11:29:54.015Z,8832
2016-04-10T11:30:54.033Z,8720
2016-04-10T11:31:54.067Z,8748
2016-04-10T11:32:54.084Z,8936
2016-04-10T11:33:54.103Z,8804
2016-04-10T11:34:54.137Z,9148
2016-04-10T11:35:54.140Z,9352
2016-04-10T11:36:54.174Z,9400
2016-04-10T11:37:54.193Z,9460
2016-04-10T11:38:54.211Z,9512
2016-04-10T11:39:54.229Z,9536
2016-04-10T11:40:54.264Z,9484
2016-04-10T11:41:54.281Z,9548
2016-04-10T11:42:54.316Z,9356
2016-04-10T11:43:54.333Z,8252
2016-04-10T11:44:54.352Z,8120
2016-04-10T11:45:54.370Z,8920
2016-04-10T11:46:54.389Z,8896
2016-04-10T11:47:54.423Z,8372
2016-04-10T11:48:54.441Z,8248
2016-04-10T11:49:54.460Z,7740
2016-04-10T11:50:54.494Z,7624
2016-04-10T11:51:54.511Z,7784
2016-04-10T11:52:54.530Z,8252
2016-04-10T11:53:54.563Z,8892
2016-04-10T11:54:54.582Z,9472
2016-04-10T11:55:54.601Z,9492
2016-04-10T11:56:54.618Z,9136
2016-04-10T11:57:54.621Z,9480
2016-04-10T11:58:54.671Z,9516
2016-04-10T11:59:54.564Z,9428
2016-04-10T12:00:54.707Z,9416
2016-04-10T12:01:54.742Z,9328
2016-04-10T12:02:54.791Z,9308
2016-04-10T12:03:54.810Z,9488
2016-04-10T12:04:54.812Z,9444
2016-04-10T12:05:54.862Z,9260
2016-04-10T12:06:54.864Z,9344
2016-04-10T12:07:54.867Z,8856
2016-04-10T12:08:54.901Z,8380
2016-04-10T12:09:54.919Z,7844
2016-04-10T12:10:54.937Z,8692
2016-04-10T12:11:54.955Z,9508
2016-04-10T12:12:55.021Z,9604
2016-04-10T12:13:55.055Z,9568
2016-04-10T12:14:55.057Z,9380
2016-04-10T12:15:55.061Z,9220
2016-04-10T12:16:55.078Z,9104
2016-04-10T12:17:55.097Z,9432
2016-04-10T12:18:55.131Z,9528
2016-04-10T12:19:55.149Z,9636
2016-04-10T12:21:09.261Z,9684
2016-04-10T12:21:55.185Z,9640
2016-04-10T12:22:55.220Z,9516
2016-04-10T12:23:55.238Z,9528
2016-04-10T12:24:55.382Z,9376
2016-04-10T12:25:55.275Z,9052
2016-04-10T12:26:55.310Z,8060
2016-04-10T12:27:55.327Z,7612
2016-04-10T12:28:55.346Z,7872
2016-04-10T12:29:55.364Z,8624
2016-04-10T12:30:55.382Z,9132
2016-04-10T12:31:55.416Z,8928
2016-04-10T12:32:55.746Z,8672
2016-04-10T12:33:55.453Z,8688
2016-04-10T12:34:55.486Z,9148
2016-04-10T12:35:55.520Z,9348
2016-04-10T12:36:55.539Z,9332
2016-04-10T12:37:55.556Z,9272
2016-04-10T12:38:55.575Z,9180
2016-04-10T12:39:55.906Z,9224
2016-04-10T12:40:55.612Z,9104
2016-04-10T12:41:55.646Z,9136
2016-04-10T12:42:55.664Z,8972
2016-04-10T12:43:55.683Z,9032
2016-04-10T12:44:55.716Z,8828
2016-04-10T12:45:55.563Z,8932
2016-04-10T12:46:55.597Z,8928
2016-04-10T12:47:55.771Z,9028
2016-04-10T12:48:55.789Z,9052
2016-04-10T12:49:55.823Z,9068
2016-04-10T12:50:55.107Z,9056
2016-04-10T12:51:55.876Z,9144
2016-04-10T12:52:55.894Z,9188
2016-04-10T12:53:55.803Z,9212
2016-04-10T12:54:56.025Z,9264
2016-04-10T12:55:55.996Z,9232
2016-04-10T12:56:56.015Z,9128
2016-04-10T12:57:56.018Z,9160
2016-04-10T12:58:56.035Z,9212
2016-04-10T12:59:56.054Z,9160
2016-04-10T13:00:56.071Z,9076
2016-04-10T13:01:56.106Z,9000
2016-04-10T13:02:56.124Z,9020
2016-04-10T13:03:56.142Z,8932
2016-04-10T13:04:56.193Z,8980
2016-04-10T13:05:56.179Z,8948
2016-04-10T13:06:56.213Z,8864
2016-04-10T13:07:56.248Z,8448
2016-04-10T13:08:56.250Z,8480
2016-04-10T13:09:56.581Z,8684
2016-04-10T13:10:56.302Z,8544
2016-04-10T13:11:56.320Z,8528
2016-04-10T13:12:56.354Z,8500
2016-04-10T13:13:56.373Z,8616
2016-04-10T13:14:56.391Z,8732
2016-04-10T13:15:56.409Z,8960
2016-04-10T13:16:56.443Z,9124
2016-04-10T13:17:56.461Z,9160
2016-04-10T13:18:56.495Z,9060
2016-04-10T13:19:56.498Z,9196
2016-04-10T13:20:56.533Z,9044
2016-04-10T13:21:56.566Z,9128
2016-04-10T13:22:56.585Z,9144
2016-04-10T13:23:56.602Z,9024
2016-04-10T13:24:56.699Z,9044
2016-04-10T13:25:56.655Z,9008
2016-04-10T13:26:56.673Z,9044
2016-04-10T13:27:56.707Z,9044
2016-04-10T13:28:56.787Z,9036
2016-04-10T13:30:10.837Z,9144
2016-04-10T13:30:56.762Z,9084
2016-04-10T13:31:56.623Z,9104
2016-04-10T13:32:56.861Z,9036
2016-04-10T13:33:56.848Z,8948
2016-04-10T13:34:56.882Z,8964
2016-04-10T13:35:56.932Z,8976
2016-04-10T13:36:56.950Z,8960
2016-04-10T13:37:56.953Z,8916
2016-04-10T13:38:56.955Z,8876
2016-04-10T13:39:57.067Z,8744
2016-04-10T13:40:57.008Z,8724
2016-04-10T13:41:57.011Z,8776
2016-04-10T13:42:57.044Z,8748
2016-04-10T13:43:57.048Z,8736
2016-04-10T13:44:57.081Z,8700
2016-04-10T13:45:57.115Z,8684
2016-04-10T13:46:57.118Z,8740
2016-04-10T13:47:57.167Z,8732
2016-04-10T13:48:57.170Z,8676
2016-04-10T13:49:57.203Z,8588